sensor_id;sensor_type;location;lat;lon;timestamp;pressure;altitude;pressure_sealevel;temperature
74485;BMP280;62942;52.462;10.846;2022-10-23T00:00:02;100880;;;
74485;BMP280;62942;52.462;10.846;2022-10-23T00:01:12;100880;;;
74485;BMP280;62942;52.462;10.846;2022-10-23T00:02:22;100890;;;
74485;BMP280;62942;52.462;10.846;2022-10-23T00:03:22;100880;;;
74485;BMP280;62942;52.462;10.846;2022-10-23T00:04:32;100890;;;
74485;BMP280;62942;52.462;10.846;2022-10-23T00:05:42;100900;;;
74485;BMP280;62942;52.462;10.846;2022-10-23T00:06:42;100900;;;
74485;BMP280;62942;52.462;10.846;2022-10-23T00:07:52;100900;;;
74485;BMP280;62942;52.462;10.846;2022-10-23T00:09:02;100890;;;
74485;BMP280;62942;52.462;10.846;2022-10-23T00:10:02;100900;;;
74485;BMP280;62942;52.462;10.846;2022-10-23T00:11:13;100890;;;
74485;BMP280;62942;52.462;10.846;2022-10-23T00:12:22;100900;;;
74485;BMP280;62942;52.462;10.846;2022-10-23T00:13:32;100900;;;
74485;BMP280;62942;52.462;10.846;2022-10-23T00:14:42;100900;;;
74485;BMP280;62942;52.462;10.846;2022-10-23T00:15:42;100900;;;
74485;BMP280;62942;52.462;10.846;2022-10-23T00:16:52;100900;;;
74485;BMP280;62942;52.462;10.846;2022-10-23T00:18:02;100900;;;
74485;BMP280;62942;52.462;10.846;2022-10-23T00:19:12;100910;;;
74485;BMP280;62942;52.462;10.846;2022-10-23T00:20:13;100900;;;
74485;BMP280;62942;52.462;10.846;2022-10-23T00:21:22;100900;;;
74485;BMP280;62942;52.462;10.846;2022-10-23T00:22:32;100910;;;
74485;BMP280;62942;52.462;10.846;2022-10-23T00:23:32;100910;;;
74485;BMP280;62942;52.462;10.846;2022-10-23T00:24:42;100910;;;
74485;BMP280;62942;52.462;10.846;2022-10-23T00:25:52;100910;;;
74485;BMP280;62942;52.462;10.846;2022-10-23T00:26:52;100910;;;
74485;BMP280;62942;52.462;10.846;2022-10-23T00:28:02;100910;;;
74485;BMP280;62942;52.462;10.846;2022-10-23T00:29:02;100910;;;
74485;BMP280;62942;52.462;10.846;2022-10-23T00:30:03;100910;;;
74485;BMP280;62942;52.462;10.846;2022-10-23T00:31:12;100910;;;
74485;BMP280;62942;52.462;10.846;2022-10-23T00:32:22;100910;;;
74485;BMP280;62942;52.462;10.846;2022-10-23T00:33:22;100910;;;
74485;BMP280;62942;52.462;10.846;2022-10-23T00:34:32;100910;;;
74485;BMP280;62942;52.462;10.846;2022-10-23T00:35:42;100910;;;
74485;BMP280;62942;52.462;10.846;2022-10-23T00:36:42;100910;;;
74485;BMP280;62942;52.462;10.846;2022-10-23T00:37:52;100910;;;
74485;BMP280;62942;52.462;10.846;2022-10-23T00:39:02;100900;;;
74485;BMP280;62942;52.462;10.846;2022-10-23T00:40:02;100910;;;
74485;BMP280;62942;52.462;10.846;2022-10-23T00:41:13;100910;;;
74485;BMP280;62942;52.462;10.846;2022-10-23T00:42:22;100910;;;
74485;BMP280;62942;52.462;10.846;2022-10-23T00:43:23;100910;;;
74485;BMP280;62942;52.462;10.846;2022-10-23T00:45:32;100910;;;
74485;BMP280;62942;52.462;10.846;2022-10-23T00:45:36;100910;;;
74485;BMP280;62942;52.462;10.846;2022-10-23T00:46:42;100910;;;
74485;BMP280;62942;52.462;10.846;2022-10-23T00:47:52;100910;;;
74485;BMP280;62942;52.462;10.846;2022-10-23T00:48:52;100910;;;
74485;BMP280;62942;52.462;10.846;2022-10-23T00:50:02;100910;;;
74485;BMP280;62942;52.462;10.846;2022-10-23T00:51:02;100910;;;
74485;BMP280;62942;52.462;10.846;2022-10-23T00:52:12;100910;;;
74485;BMP280;62942;52.462;10.846;2022-10-23T00:53:22;100910;;;
74485;BMP280;62942;52.462;10.846;2022-10-23T00:54:23;100910;;;
74485;BMP280;62942;52.462;10.846;2022-10-23T00:55:32;100910;;;
74485;BMP280;62942;52.462;10.846;2022-10-23T00:56:42;100920;;;
74485;BMP280;62942;52.462;10.846;2022-10-23T00:57:52;100910;;;
74485;BMP280;62942;52.462;10.846;2022-10-23T00:58:52;100920;;;
74485;BMP280;62942;52.462;10.846;2022-10-23T00:59:52;100900;;;
74485;BMP280;62942;52.462;10.846;2022-10-23T01:01:13;100910;;;
74485;BMP280;62942;52.462;10.846;2022-10-23T01:02:12;100920;;;
74485;BMP280;62942;52.462;10.846;2022-10-23T01:03:22;100900;;;
74485;BMP280;62942;52.462;10.846;2022-10-23T01:04:32;100900;;;
74485;BMP280;62942;52.462;10.846;2022-10-23T01:05:43;100910;;;
74485;BMP280;62942;52.462;10.846;2022-10-23T01:06:54;100910;;;
74485;BMP280;62942;52.462;10.846;2022-10-23T01:08:04;100910;;;
74485;BMP280;62942;52.462;10.846;2022-10-23T01:09:14;100910;;;
74485;BMP280;62942;52.462;10.846;2022-10-23T01:10:22;100910;;;
74485;BMP280;62942;52.462;10.846;2022-10-23T01:11:24;100910;;;
74485;BMP280;62942;52.462;10.846;2022-10-23T01:12:33;100910;;;
74485;BMP280;62942;52.462;10.846;2022-10-23T01:13:34;100900;;;
74485;BMP280;62942;52.462;10.846;2022-10-23T01:14:43;100900;;;
74485;BMP280;62942;52.462;10.846;2022-10-23T01:15:52;100900;;;
74485;BMP280;62942;52.462;10.846;2022-10-23T01:17:03;100910;;;
74485;BMP280;62942;52.462;10.846;2022-10-23T01:18:04;100910;;;
74485;BMP280;62942;52.462;10.846;2022-10-23T01:19:03;100910;;;
74485;BMP280;62942;52.462;10.846;2022-10-23T01:20:18;100910;;;
74485;BMP280;62942;52.462;10.846;2022-10-23T01:21:22;100900;;;
74485;BMP280;62942;52.462;10.846;2022-10-23T01:22:36;100910;;;
74485;BMP280;62942;52.462;10.846;2022-10-23T01:24:00;100900;;;
74485;BMP280;62942;52.462;10.846;2022-10-23T01:24:43;100910;;;
74485;BMP280;62942;52.462;10.846;2022-10-23T01:25:56;100900;;;
74485;BMP280;62942;52.462;10.846;2022-10-23T01:27:18;100900;;;
74485;BMP280;62942;52.462;10.846;2022-10-23T01:28:13;100890;;;
74485;BMP280;62942;52.462;10.846;2022-10-23T01:29:13;100890;;;
74485;BMP280;62942;52.462;10.846;2022-10-23T01:30:22;100880;;;
74485;BMP280;62942;52.462;10.846;2022-10-23T01:31:32;100880;;;
74485;BMP280;62942;52.462;10.846;2022-10-23T01:32:43;100890;;;
74485;BMP280;62942;52.462;10.846;2022-10-23T01:33:43;100890;;;
74485;BMP280;62942;52.462;10.846;2022-10-23T01:34:54;100890;;;
74485;BMP280;62942;52.462;10.846;2022-10-23T01:35:52;100900;;;
74485;BMP280;62942;52.462;10.846;2022-10-23T01:37:02;100900;;;
74485;BMP280;62942;52.462;10.846;2022-10-23T01:38:13;100900;;;
74485;BMP280;62942;52.462;10.846;2022-10-23T01:39:22;100900;;;
74485;BMP280;62942;52.462;10.846;2022-10-23T01:40:33;100900;;;
74485;BMP280;62942;52.462;10.846;2022-10-23T01:41:32;100900;;;
74485;BMP280;62942;52.462;10.846;2022-10-23T01:42:43;100890;;;
74485;BMP280;62942;52.462;10.846;2022-10-23T01:43:43;100900;;;
74485;BMP280;62942;52.462;10.846;2022-10-23T01:44:52;100900;;;
74485;BMP280;62942;52.462;10.846;2022-10-23T01:45:52;100890;;;
74485;BMP280;62942;52.462;10.846;2022-10-23T01:47:02;100890;;;
74485;BMP280;62942;52.462;10.846;2022-10-23T01:48:12;100890;;;
74485;BMP280;62942;52.462;10.846;2022-10-23T01:49:12;100890;;;
74485;BMP280;62942;52.462;10.846;2022-10-23T01:50:12;100890;;;
74485;BMP280;62942;52.462;10.846;2022-10-23T01:51:12;100890;;;
74485;BMP280;62942;52.462;10.846;2022-10-23T01:52:22;100880;;;
74485;BMP280;62942;52.462;10.846;2022-10-23T01:53:22;100890;;;
74485;BMP280;62942;52.462;10.846;2022-10-23T01:54:32;100880;;;
74485;BMP280;62942;52.462;10.846;2022-10-23T01:55:42;100890;;;
74485;BMP280;62942;52.462;10.846;2022-10-23T01:56:52;100890;;;
74485;BMP280;62942;52.462;10.846;2022-10-23T01:57:52;100890;;;
74485;BMP280;62942;52.462;10.846;2022-10-23T01:59:02;100890;;;
74485;BMP280;62942;52.462;10.846;2022-10-23T02:00:03;100890;;;
74485;BMP280;62942;52.462;10.846;2022-10-23T02:01:12;100890;;;
74485;BMP280;62942;52.462;10.846;2022-10-23T02:02:12;100890;;;
74485;BMP280;62942;52.462;10.846;2022-10-23T02:03:22;100890;;;
74485;BMP280;62942;52.462;10.846;2022-10-23T02:04:33;100890;;;
74485;BMP280;62942;52.462;10.846;2022-10-23T02:05:32;100890;;;
74485;BMP280;62942;52.462;10.846;2022-10-23T02:06:32;100890;;;
74485;BMP280;62942;52.462;10.846;2022-10-23T02:07:42;100890;;;
74485;BMP280;62942;52.462;10.846;2022-10-23T02:08:42;100880;;;
74485;BMP280;62942;52.462;10.846;2022-10-23T02:09:52;100880;;;
74485;BMP280;62942;52.462;10.846;2022-10-23T02:11:03;100880;;;
74485;BMP280;62942;52.462;10.846;2022-10-23T02:12:04;100880;;;
74485;BMP280;62942;52.462;10.846;2022-10-23T02:13:13;100870;;;
74485;BMP280;62942;52.462;10.846;2022-10-23T02:14:23;100870;;;
74485;BMP280;62942;52.462;10.846;2022-10-23T02:15:23;100860;;;
74485;BMP280;62942;52.462;10.846;2022-10-23T02:16:33;100860;;;
74485;BMP280;62942;52.462;10.846;2022-10-23T02:17:46;100860;;;
74485;BMP280;62942;52.462;10.846;2022-10-23T02:18:43;100870;;;
74485;BMP280;62942;52.462;10.846;2022-10-23T02:19:54;100870;;;
74485;BMP280;62942;52.462;10.846;2022-10-23T02:21:04;100870;;;
74485;BMP280;62942;52.462;10.846;2022-10-23T02:22:13;100860;;;
74485;BMP280;62942;52.462;10.846;2022-10-23T02:23:14;100860;;;
74485;BMP280;62942;52.462;10.846;2022-10-23T02:24:23;100860;;;
74485;BMP280;62942;52.462;10.846;2022-10-23T02:25:23;100860;;;
74485;BMP280;62942;52.462;10.846;2022-10-23T02:26:33;100860;;;
74485;BMP280;62942;52.462;10.846;2022-10-23T02:27:43;100860;;;
74485;BMP280;62942;52.462;10.846;2022-10-23T02:28:42;100860;;;
74485;BMP280;62942;52.462;10.846;2022-10-23T02:29:52;100840;;;
74485;BMP280;62942;52.462;10.846;2022-10-23T02:30:52;100850;;;
74485;BMP280;62942;52.462;10.846;2022-10-23T02:32:01;100850;;;
74485;BMP280;62942;52.462;10.846;2022-10-23T02:33:12;100850;;;
74485;BMP280;62942;52.462;10.846;2022-10-23T02:34:12;100860;;;
74485;BMP280;62942;52.462;10.846;2022-10-23T02:35:22;100860;;;
74485;BMP280;62942;52.462;10.846;2022-10-23T02:36:31;100850;;;
74485;BMP280;62942;52.462;10.846;2022-10-23T02:37:32;100850;;;
74485;BMP280;62942;52.462;10.846;2022-10-23T02:38:42;100840;;;
74485;BMP280;62942;52.462;10.846;2022-10-23T02:39:41;100840;;;
74485;BMP280;62942;52.462;10.846;2022-10-23T02:40:51;100840;;;
74485;BMP280;62942;52.462;10.846;2022-10-23T02:41:52;100840;;;
74485;BMP280;62942;52.462;10.846;2022-10-23T02:43:02;100850;;;
74485;BMP280;62942;52.462;10.846;2022-10-23T02:44:31;100850;;;
74485;BMP280;62942;52.462;10.846;2022-10-23T02:45:14;100850;;;
74485;BMP280;62942;52.462;10.846;2022-10-23T02:46:23;100850;;;
74485;BMP280;62942;52.462;10.846;2022-10-23T02:47:28;100850;;;
74485;BMP280;62942;52.462;10.846;2022-10-23T02:48:32;100840;;;
74485;BMP280;62942;52.462;10.846;2022-10-23T02:49:34;100840;;;
74485;BMP280;62942;52.462;10.846;2022-10-23T02:50:43;100840;;;
74485;BMP280;62942;52.462;10.846;2022-10-23T02:51:44;100840;;;
74485;BMP280;62942;52.462;10.846;2022-10-23T02:52:53;100850;;;
74485;BMP280;62942;52.462;10.846;2022-10-23T02:53:53;100840;;;
74485;BMP280;62942;52.462;10.846;2022-10-23T02:55:04;100840;;;
74485;BMP280;62942;52.462;10.846;2022-10-23T02:56:02;100840;;;
74485;BMP280;62942;52.462;10.846;2022-10-23T02:57:02;100840;;;
74485;BMP280;62942;52.462;10.846;2022-10-23T02:58:03;100840;;;
74485;BMP280;62942;52.462;10.846;2022-10-23T02:59:13;100840;;;
74485;BMP280;62942;52.462;10.846;2022-10-23T03:00:12;100840;;;
74485;BMP280;62942;52.462;10.846;2022-10-23T03:01:23;100830;;;
74485;BMP280;62942;52.462;10.846;2022-10-23T03:02:34;100830;;;
74485;BMP280;62942;52.462;10.846;2022-10-23T03:03:43;100830;;;
74485;BMP280;62942;52.462;10.846;2022-10-23T03:04:41;100830;;;
74485;BMP280;62942;52.462;10.846;2022-10-23T03:05:41;100830;;;
74485;BMP280;62942;52.462;10.846;2022-10-23T03:06:41;100830;;;
74485;BMP280;62942;52.462;10.846;2022-10-23T03:07:51;100830;;;
74485;BMP280;62942;52.462;10.846;2022-10-23T03:08:52;100830;;;
74485;BMP280;62942;52.462;10.846;2022-10-23T03:10:02;100830;;;
74485;BMP280;62942;52.462;10.846;2022-10-23T03:11:01;100830;;;
74485;BMP280;62942;52.462;10.846;2022-10-23T03:12:11;100820;;;
74485;BMP280;62942;52.462;10.846;2022-10-23T03:13:11;100830;;;
74485;BMP280;62942;52.462;10.846;2022-10-23T03:14:21;100830;;;
74485;BMP280;62942;52.462;10.846;2022-10-23T03:15:31;100830;;;
74485;BMP280;62942;52.462;10.846;2022-10-23T03:16:31;100830;;;
74485;BMP280;62942;52.462;10.846;2022-10-23T03:17:41;100830;;;
74485;BMP280;62942;52.462;10.846;2022-10-23T03:18:41;100820;;;
74485;BMP280;62942;52.462;10.846;2022-10-23T03:19:52;100830;;;
74485;BMP280;62942;52.462;10.846;2022-10-23T03:20:51;100830;;;
74485;BMP280;62942;52.462;10.846;2022-10-23T03:22:01;100840;;;
74485;BMP280;62942;52.462;10.846;2022-10-23T03:23:01;100840;;;
74485;BMP280;62942;52.462;10.846;2022-10-23T03:24:01;100830;;;
74485;BMP280;62942;52.462;10.846;2022-10-23T03:25:11;100830;;;
74485;BMP280;62942;52.462;10.846;2022-10-23T03:26:11;100830;;;
74485;BMP280;62942;52.462;10.846;2022-10-23T03:27:21;100830;;;
74485;BMP280;62942;52.462;10.846;2022-10-23T03:28:22;100830;;;
74485;BMP280;62942;52.462;10.846;2022-10-23T03:29:21;100830;;;
74485;BMP280;62942;52.462;10.846;2022-10-23T03:30:31;100830;;;
74485;BMP280;62942;52.462;10.846;2022-10-23T03:31:31;100830;;;
74485;BMP280;62942;52.462;10.846;2022-10-23T03:32:32;100830;;;
74485;BMP280;62942;52.462;10.846;2022-10-23T03:33:31;100820;;;
74485;BMP280;62942;52.462;10.846;2022-10-23T03:34:31;100830;;;
74485;BMP280;62942;52.462;10.846;2022-10-23T03:35:41;100830;;;
74485;BMP280;62942;52.462;10.846;2022-10-23T03:36:51;100830;;;
74485;BMP280;62942;52.462;10.846;2022-10-23T03:37:51;100830;;;
74485;BMP280;62942;52.462;10.846;2022-10-23T03:39:01;100840;;;
74485;BMP280;62942;52.462;10.846;2022-10-23T03:40:02;100840;;;
74485;BMP280;62942;52.462;10.846;2022-10-23T03:41:11;100840;;;
74485;BMP280;62942;52.462;10.846;2022-10-23T03:42:11;100840;;;
74485;BMP280;62942;52.462;10.846;2022-10-23T03:43:21;100840;;;
74485;BMP280;62942;52.462;10.846;2022-10-23T03:44:31;100840;;;
74485;BMP280;62942;52.462;10.846;2022-10-23T03:45:41;100840;;;
74485;BMP280;62942;52.462;10.846;2022-10-23T03:46:41;100840;;;
74485;BMP280;62942;52.462;10.846;2022-10-23T03:47:41;100840;;;
74485;BMP280;62942;52.462;10.846;2022-10-23T03:48:41;100840;;;
74485;BMP280;62942;52.462;10.846;2022-10-23T03:49:51;100840;;;
74485;BMP280;62942;52.462;10.846;2022-10-23T03:51:01;100840;;;
74485;BMP280;62942;52.462;10.846;2022-10-23T03:52:01;100840;;;
74485;BMP280;62942;52.462;10.846;2022-10-23T03:53:11;100830;;;
74485;BMP280;62942;52.462;10.846;2022-10-23T03:54:11;100830;;;
74485;BMP280;62942;52.462;10.846;2022-10-23T03:55:11;100830;;;
74485;BMP280;62942;52.462;10.846;2022-10-23T03:56:21;100830;;;
74485;BMP280;62942;52.462;10.846;2022-10-23T03:57:21;100830;;;
74485;BMP280;62942;52.462;10.846;2022-10-23T03:58:31;100830;;;
74485;BMP280;62942;52.462;10.846;2022-10-23T03:59:41;100830;;;
74485;BMP280;62942;52.462;10.846;2022-10-23T04:00:41;100820;;;
74485;BMP280;62942;52.462;10.846;2022-10-23T04:01:41;100830;;;
74485;BMP280;62942;52.462;10.846;2022-10-23T04:02:41;100820;;;
74485;BMP280;62942;52.462;10.846;2022-10-23T04:03:51;100810;;;
74485;BMP280;62942;52.462;10.846;2022-10-23T04:04:51;100810;;;
74485;BMP280;62942;52.462;10.846;2022-10-23T04:06:01;100810;;;
74485;BMP280;62942;52.462;10.846;2022-10-23T04:07:11;100810;;;
74485;BMP280;62942;52.462;10.846;2022-10-23T04:08:11;100810;;;
74485;BMP280;62942;52.462;10.846;2022-10-23T04:09:11;100810;;;
74485;BMP280;62942;52.462;10.846;2022-10-23T04:10:21;100810;;;
74485;BMP280;62942;52.462;10.846;2022-10-23T04:11:21;100810;;;
74485;BMP280;62942;52.462;10.846;2022-10-23T04:12:31;100800;;;
74485;BMP280;62942;52.462;10.846;2022-10-23T04:13:41;100800;;;
74485;BMP280;62942;52.462;10.846;2022-10-23T04:14:41;100810;;;
74485;BMP280;62942;52.462;10.846;2022-10-23T04:15:46;100810;;;
74485;BMP280;62942;52.462;10.846;2022-10-23T04:16:41;100810;;;
74485;BMP280;62942;52.462;10.846;2022-10-23T04:17:51;100800;;;
74485;BMP280;62942;52.462;10.846;2022-10-23T04:18:51;100800;;;
74485;BMP280;62942;52.462;10.846;2022-10-23T04:19:51;100800;;;
74485;BMP280;62942;52.462;10.846;2022-10-23T04:20:51;100800;;;
74485;BMP280;62942;52.462;10.846;2022-10-23T04:21:51;100800;;;
74485;BMP280;62942;52.462;10.846;2022-10-23T04:22:51;100800;;;
74485;BMP280;62942;52.462;10.846;2022-10-23T04:24:01;100810;;;
74485;BMP280;62942;52.462;10.846;2022-10-23T04:25:01;100810;;;
74485;BMP280;62942;52.462;10.846;2022-10-23T04:26:01;100790;;;
74485;BMP280;62942;52.462;10.846;2022-10-23T04:27:11;100790;;;
74485;BMP280;62942;52.462;10.846;2022-10-23T04:28:21;100790;;;
74485;BMP280;62942;52.462;10.846;2022-10-23T04:29:21;100790;;;
74485;BMP280;62942;52.462;10.846;2022-10-23T04:30:31;100800;;;
74485;BMP280;62942;52.462;10.846;2022-10-23T04:31:41;100810;;;
74485;BMP280;62942;52.462;10.846;2022-10-23T04:32:51;100820;;;
74485;BMP280;62942;52.462;10.846;2022-10-23T04:33:51;100820;;;
74485;BMP280;62942;52.462;10.846;2022-10-23T04:35:01;100820;;;
74485;BMP280;62942;52.462;10.846;2022-10-23T04:36:11;100820;;;
74485;BMP280;62942;52.462;10.846;2022-10-23T04:37:21;100820;;;
74485;BMP280;62942;52.462;10.846;2022-10-23T04:38:31;100820;;;
74485;BMP280;62942;52.462;10.846;2022-10-23T04:39:31;100820;;;
74485;BMP280;62942;52.462;10.846;2022-10-23T04:40:31;100820;;;
74485;BMP280;62942;52.462;10.846;2022-10-23T04:41:31;100830;;;
74485;BMP280;62942;52.462;10.846;2022-10-23T04:42:31;100830;;;
74485;BMP280;62942;52.462;10.846;2022-10-23T04:43:31;100830;;;
74485;BMP280;62942;52.462;10.846;2022-10-23T04:44:41;100830;;;
74485;BMP280;62942;52.462;10.846;2022-10-23T04:45:41;100840;;;
74485;BMP280;62942;52.462;10.846;2022-10-23T04:46:51;100830;;;
74485;BMP280;62942;52.462;10.846;2022-10-23T04:48:01;100830;;;
74485;BMP280;62942;52.462;10.846;2022-10-23T04:49:11;100830;;;
74485;BMP280;62942;52.462;10.846;2022-10-23T04:50:11;100830;;;
74485;BMP280;62942;52.462;10.846;2022-10-23T04:51:21;100830;;;
74485;BMP280;62942;52.462;10.846;2022-10-23T04:52:31;100830;;;
74485;BMP280;62942;52.462;10.846;2022-10-23T04:53:31;100830;;;
74485;BMP280;62942;52.462;10.846;2022-10-23T04:54:41;100830;;;
74485;BMP280;62942;52.462;10.846;2022-10-23T04:55:46;100830;;;
74485;BMP280;62942;52.462;10.846;2022-10-23T04:56:51;100830;;;
74485;BMP280;62942;52.462;10.846;2022-10-23T04:57:51;100830;;;
74485;BMP280;62942;52.462;10.846;2022-10-23T04:59:01;100830;;;
74485;BMP280;62942;52.462;10.846;2022-10-23T05:00:12;100820;;;
74485;BMP280;62942;52.462;10.846;2022-10-23T05:01:21;100830;;;
74485;BMP280;62942;52.462;10.846;2022-10-23T05:02:21;100820;;;
74485;BMP280;62942;52.462;10.846;2022-10-23T05:03:31;100820;;;
74485;BMP280;62942;52.462;10.846;2022-10-23T05:04:31;100820;;;
74485;BMP280;62942;52.462;10.846;2022-10-23T05:05:41;100810;;;
74485;BMP280;62942;52.462;10.846;2022-10-23T05:06:51;100810;;;
74485;BMP280;62942;52.462;10.846;2022-10-23T05:07:51;100810;;;
74485;BMP280;62942;52.462;10.846;2022-10-23T05:09:01;100800;;;
74485;BMP280;62942;52.462;10.846;2022-10-23T05:10:01;100810;;;
74485;BMP280;62942;52.462;10.846;2022-10-23T05:11:01;100820;;;
74485;BMP280;62942;52.462;10.846;2022-10-23T05:12:11;100810;;;
74485;BMP280;62942;52.462;10.846;2022-10-23T05:13:21;100810;;;
74485;BMP280;62942;52.462;10.846;2022-10-23T05:14:21;100810;;;
74485;BMP280;62942;52.462;10.846;2022-10-23T05:15:31;100820;;;
74485;BMP280;62942;52.462;10.846;2022-10-23T05:16:42;100820;;;
74485;BMP280;62942;52.462;10.846;2022-10-23T05:17:52;100820;;;
74485;BMP280;62942;52.462;10.846;2022-10-23T05:19:01;100820;;;
74485;BMP280;62942;52.462;10.846;2022-10-23T05:20:13;100820;;;
74485;BMP280;62942;52.462;10.846;2022-10-23T05:21:13;100810;;;
74485;BMP280;62942;52.462;10.846;2022-10-23T05:22:22;100820;;;
74485;BMP280;62942;52.462;10.846;2022-10-23T05:23:31;100810;;;
74485;BMP280;62942;52.462;10.846;2022-10-23T05:24:41;100820;;;
74485;BMP280;62942;52.462;10.846;2022-10-23T05:25:51;100820;;;
74485;BMP280;62942;52.462;10.846;2022-10-23T05:27:01;100820;;;
74485;BMP280;62942;52.462;10.846;2022-10-23T05:28:01;100820;;;
74485;BMP280;62942;52.462;10.846;2022-10-23T05:29:11;100820;;;
74485;BMP280;62942;52.462;10.846;2022-10-23T05:30:21;100820;;;
74485;BMP280;62942;52.462;10.846;2022-10-23T05:31:21;100810;;;
74485;BMP280;62942;52.462;10.846;2022-10-23T05:32:21;100800;;;
74485;BMP280;62942;52.462;10.846;2022-10-23T05:33:31;100820;;;
74485;BMP280;62942;52.462;10.846;2022-10-23T05:34:41;100810;;;
74485;BMP280;62942;52.462;10.846;2022-10-23T05:35:51;100810;;;
74485;BMP280;62942;52.462;10.846;2022-10-23T05:37:01;100810;;;
74485;BMP280;62942;52.462;10.846;2022-10-23T05:38:12;100800;;;
74485;BMP280;62942;52.462;10.846;2022-10-23T05:39:21;100800;;;
74485;BMP280;62942;52.462;10.846;2022-10-23T05:40:21;100800;;;
74485;BMP280;62942;52.462;10.846;2022-10-23T05:41:31;100800;;;
74485;BMP280;62942;52.462;10.846;2022-10-23T05:42:41;100790;;;
74485;BMP280;62942;52.462;10.846;2022-10-23T05:43:51;100800;;;
74485;BMP280;62942;52.462;10.846;2022-10-23T05:45:01;100790;;;
74485;BMP280;62942;52.462;10.846;2022-10-23T05:46:11;100790;;;
74485;BMP280;62942;52.462;10.846;2022-10-23T05:47:21;100790;;;
74485;BMP280;62942;52.462;10.846;2022-10-23T05:48:21;100790;;;
74485;BMP280;62942;52.462;10.846;2022-10-23T05:49:31;100790;;;
74485;BMP280;62942;52.462;10.846;2022-10-23T05:50:41;100780;;;
74485;BMP280;62942;52.462;10.846;2022-10-23T05:51:51;100790;;;
74485;BMP280;62942;52.462;10.846;2022-10-23T05:53:01;100790;;;
74485;BMP280;62942;52.462;10.846;2022-10-23T05:54:11;100790;;;
74485;BMP280;62942;52.462;10.846;2022-10-23T05:55:21;100790;;;
74485;BMP280;62942;52.462;10.846;2022-10-23T05:56:31;100790;;;
74485;BMP280;62942;52.462;10.846;2022-10-23T05:57:41;100790;;;
74485;BMP280;62942;52.462;10.846;2022-10-23T05:58:41;100790;;;
74485;BMP280;62942;52.462;10.846;2022-10-23T05:59:51;100790;;;
74485;BMP280;62942;52.462;10.846;2022-10-23T06:01:03;100800;;;
74485;BMP280;62942;52.462;10.846;2022-10-23T06:02:11;100790;;;
74485;BMP280;62942;52.462;10.846;2022-10-23T06:03:11;100790;;;
74485;BMP280;62942;52.462;10.846;2022-10-23T06:04:21;100790;;;
74485;BMP280;62942;52.462;10.846;2022-10-23T06:05:31;100790;;;
74485;BMP280;62942;52.462;10.846;2022-10-23T06:06:41;100790;;;
74485;BMP280;62942;52.462;10.846;2022-10-23T06:07:41;100790;;;
74485;BMP280;62942;52.462;10.846;2022-10-23T06:08:41;100790;;;
74485;BMP280;62942;52.462;10.846;2022-10-23T06:09:51;100790;;;
74485;BMP280;62942;52.462;10.846;2022-10-23T06:11:05;100780;;;
74485;BMP280;62942;52.462;10.846;2022-10-23T06:12:11;100780;;;
74485;BMP280;62942;52.462;10.846;2022-10-23T06:13:11;100790;;;
74485;BMP280;62942;52.462;10.846;2022-10-23T06:14:21;100790;;;
74485;BMP280;62942;52.462;10.846;2022-10-23T06:15:31;100780;;;
74485;BMP280;62942;52.462;10.846;2022-10-23T06:16:41;100790;;;
74485;BMP280;62942;52.462;10.846;2022-10-23T06:17:51;100790;;;
74485;BMP280;62942;52.462;10.846;2022-10-23T06:18:51;100780;;;
74485;BMP280;62942;52.462;10.846;2022-10-23T06:19:51;100790;;;
74485;BMP280;62942;52.462;10.846;2022-10-23T06:20:51;100770;;;
74485;BMP280;62942;52.462;10.846;2022-10-23T06:22:02;100770;;;
74485;BMP280;62942;52.462;10.846;2022-10-23T06:23:11;100770;;;
74485;BMP280;62942;52.462;10.846;2022-10-23T06:24:21;100780;;;
74485;BMP280;62942;52.462;10.846;2022-10-23T06:25:21;100790;;;
74485;BMP280;62942;52.462;10.846;2022-10-23T06:26:31;100790;;;
74485;BMP280;62942;52.462;10.846;2022-10-23T06:27:41;100790;;;
74485;BMP280;62942;52.462;10.846;2022-10-23T06:28:51;100800;;;
74485;BMP280;62942;52.462;10.846;2022-10-23T06:29:51;100790;;;
74485;BMP280;62942;52.462;10.846;2022-10-23T06:30:51;100790;;;
74485;BMP280;62942;52.462;10.846;2022-10-23T06:32:01;100790;;;
74485;BMP280;62942;52.462;10.846;2022-10-23T06:33:01;100790;;;
74485;BMP280;62942;52.462;10.846;2022-10-23T06:34:11;100790;;;
74485;BMP280;62942;52.462;10.846;2022-10-23T06:35:21;100800;;;
74485;BMP280;62942;52.462;10.846;2022-10-23T06:36:31;100800;;;
74485;BMP280;62942;52.462;10.846;2022-10-23T06:37:41;100800;;;
74485;BMP280;62942;52.462;10.846;2022-10-23T06:38:41;100800;;;
74485;BMP280;62942;52.462;10.846;2022-10-23T06:39:51;100800;;;
74485;BMP280;62942;52.462;10.846;2022-10-23T06:41:01;100800;;;
74485;BMP280;62942;52.462;10.846;2022-10-23T06:42:11;100790;;;
74485;BMP280;62942;52.462;10.846;2022-10-23T06:43:21;100790;;;
74485;BMP280;62942;52.462;10.846;2022-10-23T06:44:31;100790;;;
74485;BMP280;62942;52.462;10.846;2022-10-23T06:45:31;100780;;;
74485;BMP280;62942;52.462;10.846;2022-10-23T06:46:41;100790;;;
74485;BMP280;62942;52.462;10.846;2022-10-23T06:47:51;100790;;;
74485;BMP280;62942;52.462;10.846;2022-10-23T06:49:01;100790;;;
74485;BMP280;62942;52.462;10.846;2022-10-23T06:50:01;100790;;;
74485;BMP280;62942;52.462;10.846;2022-10-23T06:51:13;100790;;;
74485;BMP280;62942;52.462;10.846;2022-10-23T06:52:21;100790;;;
74485;BMP280;62942;52.462;10.846;2022-10-23T06:53:31;100790;;;
74485;BMP280;62942;52.462;10.846;2022-10-23T06:54:41;100790;;;
74485;BMP280;62942;52.462;10.846;2022-10-23T06:55:51;100790;;;
74485;BMP280;62942;52.462;10.846;2022-10-23T06:56:51;100790;;;